createdAt,value
2019-03-08T00:01:59.542Z,67.49
2019-03-08T00:04:26.884Z,67.31
2019-03-08T00:06:54.241Z,67.02
2019-03-08T00:09:21.595Z,66.77
2019-03-08T00:11:48.968Z,66.33
2019-03-08T00:14:17.151Z,66.44
2019-03-08T00:16:44.375Z,66.28
2019-03-08T00:19:11.757Z,65.99
2019-03-08T00:21:43.838Z,67.47
2019-03-08T00:24:11.168Z,69.07
2019-03-08T00:26:38.270Z,70.69
2019-03-08T00:29:05.300Z,73.18
2019-03-08T00:31:32.525Z,75.51
2019-03-08T00:33:59.857Z,75.79
2019-03-08T00:36:27.056Z,76.44
2019-03-08T00:38:54.358Z,77.28
2019-03-08T00:41:21.472Z,76.98
2019-03-08T00:43:48.573Z,77.48
2019-03-08T00:46:21.839Z,77.75
2019-03-08T00:48:49.206Z,77.75
2019-03-08T00:51:16.254Z,77.21
2019-03-08T00:53:43.285Z,77.66
2019-03-08T00:56:10.658Z,77.21
2019-03-08T00:58:38.423Z,76.26
2019-03-08T01:01:05.539Z,75.80
2019-03-08T01:03:33.100Z,75.78
2019-03-08T01:06:00.144Z,75.31
2019-03-08T01:08:36.780Z,74.50
2019-03-08T01:11:04.084Z,74.40
2019-03-08T01:13:31.115Z,74.23
2019-03-08T01:15:58.512Z,74.49
2019-03-08T01:18:30.251Z,74.15
2019-03-08T01:20:57.625Z,73.97
2019-03-08T01:23:24.722Z,73.96
2019-03-08T01:25:51.765Z,73.77
2019-03-08T01:28:18.793Z,73.97
2019-03-08T01:30:46.138Z,74.04
2019-03-08T01:33:13.249Z,74.10
2019-03-08T01:35:40.291Z,74.26
2019-03-08T01:38:07.324Z,74.81
2019-03-08T01:40:34.377Z,74.75
2019-03-08T01:43:01.406Z,74.73
2019-03-08T01:45:39.719Z,74.07
2019-03-08T01:48:07.149Z,73.64
2019-03-08T01:50:34.488Z,72.58
2019-03-08T01:53:01.861Z,72.58
2019-03-08T01:55:29.202Z,71.94
2019-03-08T01:57:56.554Z,71.81
2019-03-08T02:00:23.584Z,71.46
2019-03-08T02:02:50.636Z,71.32
2019-03-08T02:05:17.851Z,71.59
2019-03-08T02:07:44.895Z,71.55
2019-03-08T02:10:12.218Z,71.75
2019-03-08T02:12:39.556Z,72.44
2019-03-08T02:15:06.589Z,73.31
2019-03-08T02:17:33.876Z,74.32
2019-03-08T02:20:00.909Z,75.26
2019-03-08T02:22:28.320Z,76.41
2019-03-08T02:24:55.632Z,77.08
2019-03-08T02:27:22.987Z,77.82
2019-03-08T02:29:50.025Z,78.11
2019-03-08T02:32:17.315Z,78.66
2019-03-08T02:34:44.350Z,78.34
2019-03-08T02:37:11.392Z,77.85
2019-03-08T02:39:38.737Z,77.08
2019-03-08T02:42:06.076Z,76.69
2019-03-08T02:44:33.105Z,75.42
2019-03-08T02:47:00.157Z,74.84
2019-03-08T02:49:27.530Z,74.92
2019-03-08T02:51:54.885Z,74.22
2019-03-08T02:54:22.460Z,74.80
2019-03-08T02:56:49.815Z,75.06
2019-03-08T02:59:16.853Z,75.64
2019-03-08T03:01:44.220Z,76.01
2019-03-08T03:04:11.556Z,76.16
2019-03-08T03:06:38.596Z,76.33
2019-03-08T03:09:05.960Z,75.30
2019-03-08T03:11:34.612Z,75.18
2019-03-08T03:14:02.022Z,75.29
2019-03-08T03:16:29.051Z,75.59
2019-03-08T03:18:56.099Z,75.91
2019-03-08T03:21:23.145Z,76.16
2019-03-08T03:23:50.195Z,76.28
2019-03-08T03:26:17.575Z,76.02
2019-03-08T03:28:44.903Z,75.26
2019-03-08T03:31:13.153Z,74.80
2019-03-08T03:33:40.455Z,75.12
2019-03-08T03:36:07.732Z,76.70
2019-03-08T03:38:35.041Z,78.15
2019-03-08T03:41:02.076Z,80.16
2019-03-08T03:43:29.296Z,82.42
2019-03-08T03:45:56.596Z,83.65
2019-03-08T03:48:23.721Z,84.62
2019-03-08T03:50:50.748Z,85.04
2019-03-08T03:53:18.148Z,86.04
2019-03-08T03:55:45.180Z,86.52
2019-03-08T03:58:12.223Z,86.54
2019-03-08T04:00:39.531Z,87.33
2019-03-08T04:03:06.852Z,87.78
2019-03-08T04:05:33.885Z,87.69
2019-03-08T04:08:00.932Z,88.40
2019-03-08T04:10:27.984Z,88.63
2019-03-08T04:12:55.368Z,88.97
2019-03-08T04:15:22.418Z,89.15
2019-03-08T04:17:49.450Z,89.39
2019-03-08T04:20:16.746Z,89.41
2019-03-08T04:22:44.084Z,89.20
2019-03-08T04:25:11.124Z,89.22
2019-03-08T04:27:38.476Z,89.11
2019-03-08T04:30:05.756Z,89.16
2019-03-08T04:32:33.048Z,89.29
2019-03-08T04:35:00.420Z,89.34
2019-03-08T04:37:27.451Z,89.35
2019-03-08T04:39:54.745Z,89.45
2019-03-08T04:42:21.848Z,89.56
2019-03-08T04:44:48.902Z,89.63
2019-03-08T04:47:19.180Z,89.72
2019-03-08T04:49:46.471Z,89.79
2019-03-08T04:52:13.359Z,89.83
2019-03-08T04:54:40.647Z,89.40
2019-03-08T04:57:07.963Z,88.85
2019-03-08T04:59:35.017Z,88.50
2019-03-08T05:02:02.052Z,88.50
2019-03-08T05:04:29.097Z,88.95
2019-03-08T05:06:56.204Z,88.54
2019-03-08T05:09:23.595Z,88.85
2019-03-08T05:11:50.969Z,88.62
2019-03-08T05:14:18.065Z,88.30
2019-03-08T05:16:45.104Z,88.19
2019-03-08T05:19:12.506Z,88.38
2019-03-08T05:21:39.876Z,88.00
2019-03-08T05:24:07.082Z,87.95
2019-03-08T05:26:34.468Z,88.39
2019-03-08T05:29:01.748Z,88.47
2019-03-08T05:31:29.092Z,88.19
2019-03-08T05:33:56.123Z,88.05
2019-03-08T05:36:24.917Z,88.53
2019-03-08T05:38:55.852Z,88.81
2019-03-08T05:41:23.227Z,88.40
2019-03-08T05:43:50.387Z,88.61
2019-03-08T05:46:17.711Z,88.30
2019-03-08T05:48:45.068Z,88.45
2019-03-08T05:51:12.446Z,88.69
2019-03-08T05:53:39.780Z,88.59
2019-03-08T05:56:07.000Z,88.59
2019-03-08T05:58:34.438Z,88.18
2019-03-08T06:01:01.448Z,88.32
2019-03-08T06:03:28.753Z,88.90
2019-03-08T06:05:56.146Z,88.70
2019-03-08T06:08:23.177Z,88.74
2019-03-08T06:10:50.564Z,89.27
2019-03-08T06:13:17.772Z,88.83
2019-03-08T06:15:45.153Z,88.27
2019-03-08T06:18:12.184Z,88.00
2019-03-08T06:20:39.231Z,87.29
2019-03-08T06:23:06.625Z,87.34
2019-03-08T06:25:34.007Z,86.84
2019-03-08T06:28:01.248Z,86.50
2019-03-08T06:30:28.515Z,86.20
2019-03-08T06:32:55.834Z,86.23
2019-03-08T06:35:23.193Z,86.54
2019-03-08T06:37:50.527Z,86.41
2019-03-08T06:40:17.583Z,86.40
2019-03-08T06:42:44.933Z,86.32
2019-03-08T06:45:12.303Z,86.36
2019-03-08T06:47:39.599Z,86.24
2019-03-08T06:50:06.929Z,86.06
2019-03-08T06:52:33.949Z,86.20
2019-03-08T06:55:01.305Z,86.32
2019-03-08T06:57:34.079Z,85.47
2019-03-08T07:00:01.436Z,85.13
2019-03-08T07:02:30.448Z,83.98
2019-03-08T07:04:57.904Z,82.60
2019-03-08T07:07:25.259Z,81.07
2019-03-08T07:09:52.624Z,79.50
2019-03-08T07:12:19.673Z,78.11
2019-03-08T07:14:47.026Z,77.73
2019-03-08T07:17:14.355Z,77.88
2019-03-08T07:19:41.717Z,77.55
2019-03-08T07:22:09.700Z,74.00
2019-03-08T07:24:36.732Z,69.56
2019-03-08T07:27:04.040Z,70.12
2019-03-08T07:29:31.336Z,72.75
2019-03-08T07:31:58.692Z,75.09
2019-03-08T07:34:45.307Z,76.94
2019-03-08T07:37:12.354Z,77.07
2019-03-08T07:39:39.387Z,78.46
2019-03-08T07:42:07.652Z,79.39
2019-03-08T07:44:35.437Z,78.66
2019-03-08T07:47:02.742Z,78.33
2019-03-08T07:49:29.774Z,79.32
2019-03-08T07:51:57.096Z,79.04
2019-03-08T07:54:24.129Z,74.10
2019-03-08T07:56:51.515Z,68.18
2019-03-08T07:59:18.851Z,65.21
2019-03-08T08:01:46.204Z,59.13
2019-03-08T08:04:13.615Z,57.33
2019-03-08T08:06:40.886Z,60.50
2019-03-08T08:09:08.272Z,64.26
2019-03-08T08:11:35.827Z,64.71
2019-03-08T08:14:02.890Z,62.18
2019-03-08T08:16:29.930Z,61.14
2019-03-08T08:18:57.280Z,59.28
2019-03-08T08:21:24.318Z,53.92
2019-03-08T08:23:51.709Z,43.98
2019-03-08T08:26:19.060Z,43.91
2019-03-08T08:28:49.968Z,42.27
2019-03-08T08:31:15.134Z,39.13
2019-03-08T08:33:42.538Z,40.19
2019-03-08T08:36:09.908Z,45.75
2019-03-08T08:38:37.306Z,52.07
2019-03-08T08:41:04.343Z,57.76
2019-03-08T08:43:31.394Z,60.70
2019-03-08T08:45:58.697Z,59.84
2019-03-08T08:48:26.078Z,52.22
2019-03-08T08:50:53.118Z,45.34
2019-03-08T08:53:20.418Z,44.83
2019-03-08T08:55:47.978Z,40.72
2019-03-08T08:58:15.373Z,42.17
2019-03-08T09:00:42.421Z,45.48
2019-03-08T09:03:09.779Z,48.62
2019-03-08T09:05:37.151Z,49.99
2019-03-08T09:08:04.485Z,53.16
2019-03-08T09:13:25.409Z,52.20
2019-03-08T09:15:52.785Z,50.81
2019-03-08T09:18:19.838Z,50.44
2019-03-08T09:20:47.184Z,50.12
2019-03-08T09:23:14.410Z,49.42
2019-03-08T09:25:41.777Z,49.90
2019-03-08T09:28:09.129Z,49.58
2019-03-08T09:30:36.485Z,47.74
2019-03-08T09:33:03.862Z,48.53
2019-03-08T09:35:31.537Z,48.35
2019-03-08T09:37:58.871Z,46.86
2019-03-08T09:40:25.926Z,46.34
2019-03-08T09:42:52.958Z,43.04
2019-03-08T09:45:20.004Z,39.30
2019-03-08T09:47:50.257Z,31.79
2019-03-08T09:50:17.316Z,27.02
2019-03-08T09:52:44.732Z,30.50
2019-03-08T09:55:12.062Z,30.36
2019-03-08T09:57:39.952Z,32.39
2019-03-08T10:00:07.533Z,34.20
2019-03-08T10:02:34.870Z,35.06
2019-03-08T10:05:02.226Z,34.50
2019-03-08T10:07:29.535Z,30.36
2019-03-08T10:09:56.951Z,23.73
2019-03-08T10:12:25.022Z,22.32
2019-03-08T10:14:52.359Z,23.25
2019-03-08T10:17:19.734Z,28.74
2019-03-08T10:19:47.069Z,25.46
2019-03-08T10:22:14.427Z,30.55
2019-03-08T10:24:41.478Z,35.79
2019-03-08T10:27:08.523Z,40.72
2019-03-08T10:29:35.568Z,41.91
2019-03-08T10:32:02.604Z,38.85
2019-03-08T10:34:29.969Z,43.15
2019-03-08T10:36:57.005Z,43.75
2019-03-08T10:39:24.050Z,46.42
2019-03-08T10:41:51.420Z,49.14
2019-03-08T10:44:18.533Z,37.43
2019-03-08T10:46:45.586Z,35.70
2019-03-08T10:49:12.616Z,27.98
2019-03-08T10:51:39.925Z,23.20
2019-03-08T10:54:07.277Z,23.77
2019-03-08T10:56:34.331Z,29.57
2019-03-08T10:59:01.371Z,31.91
2019-03-08T11:01:29.033Z,37.33
2019-03-08T11:03:56.408Z,42.63
2019-03-08T11:06:23.850Z,45.31
2019-03-08T11:08:50.960Z,45.08
2019-03-08T11:11:18.357Z,46.42
2019-03-08T11:13:45.712Z,45.03
2019-03-08T11:16:13.065Z,43.13
2019-03-08T11:18:40.273Z,42.62
2019-03-08T11:21:07.668Z,42.22
2019-03-08T11:23:35.023Z,43.16
2019-03-08T11:26:02.385Z,44.45
2019-03-08T11:28:29.416Z,43.55
2019-03-08T11:30:56.729Z,43.15
2019-03-08T11:33:24.040Z,43.32
2019-03-08T11:35:51.395Z,44.02
2019-03-08T11:38:18.750Z,44.57
2019-03-08T11:40:46.118Z,45.19
2019-03-08T11:43:13.400Z,45.74
2019-03-08T11:45:41.032Z,45.99
2019-03-08T11:48:08.063Z,48.57
2019-03-08T11:50:35.732Z,48.65
2019-03-08T11:53:02.780Z,48.30
2019-03-08T11:55:29.814Z,48.66
2019-03-08T11:57:57.195Z,48.31
2019-03-08T12:00:24.228Z,48.68
2019-03-08T12:02:51.581Z,49.75
2019-03-08T12:05:18.614Z,49.35
2019-03-08T12:07:47.337Z,50.08
2019-03-08T12:10:14.874Z,49.86
2019-03-08T12:12:41.920Z,50.05
2019-03-08T12:15:08.955Z,49.56
2019-03-08T12:17:36.346Z,49.91
2019-03-08T12:20:03.681Z,49.57
2019-03-08T12:22:31.257Z,48.64
2019-03-08T12:24:58.561Z,48.21
2019-03-08T12:27:25.614Z,48.55
2019-03-08T12:29:52.647Z,49.17
2019-03-08T12:32:21.069Z,49.53
2019-03-08T12:34:48.107Z,48.84
2019-03-08T12:37:15.473Z,48.14
2019-03-08T12:39:43.152Z,46.49
2019-03-08T12:42:10.207Z,46.10
2019-03-08T12:44:37.244Z,44.90
2019-03-08T12:47:04.586Z,42.18
2019-03-08T12:49:31.623Z,39.90
2019-03-08T12:51:58.681Z,41.21
2019-03-08T12:54:25.717Z,41.49
2019-03-08T12:56:52.766Z,41.76
2019-03-08T12:59:19.798Z,41.87
2019-03-08T13:01:47.182Z,42.66
2019-03-08T13:04:14.786Z,42.19
2019-03-08T13:06:42.097Z,42.69
2019-03-08T13:09:09.452Z,43.34
2019-03-08T13:11:37.015Z,44.88
2019-03-08T13:14:04.073Z,47.24
2019-03-08T13:16:31.113Z,46.78
2019-03-08T13:18:58.158Z,45.23
2019-03-08T13:21:25.193Z,43.58
2019-03-08T13:23:52.558Z,43.81
2019-03-08T13:26:19.589Z,43.48
2019-03-08T13:28:46.637Z,44.44
2019-03-08T13:31:14.009Z,45.75
2019-03-08T13:33:41.385Z,47.73
2019-03-08T13:36:08.721Z,49.03
2019-03-08T13:38:36.076Z,49.22
2019-03-08T13:41:03.447Z,49.97
2019-03-08T13:43:30.784Z,50.25
2019-03-08T13:45:58.140Z,50.60
2019-03-08T13:48:25.512Z,50.94
2019-03-08T13:50:52.847Z,51.26
2019-03-08T13:53:19.900Z,54.51
2019-03-08T13:55:47.252Z,58.47
2019-03-08T13:58:15.633Z,61.90
2019-03-08T14:00:44.319Z,65.38
2019-03-08T14:03:11.672Z,67.98
2019-03-08T14:05:38.705Z,70.19
2019-03-08T14:08:05.756Z,71.23
2019-03-08T14:10:33.126Z,70.24
2019-03-08T14:13:00.424Z,69.24
2019-03-08T14:15:27.749Z,68.72
2019-03-08T14:17:55.308Z,67.90
2019-03-08T14:20:22.665Z,67.63
2019-03-08T14:22:50.004Z,67.60
2019-03-08T14:25:17.376Z,67.88
2019-03-08T14:27:44.673Z,66.54
2019-03-08T14:30:11.721Z,66.92
2019-03-08T14:32:39.011Z,66.83
2019-03-08T14:35:06.369Z,66.46
2019-03-08T14:37:33.728Z,67.02
2019-03-08T14:40:00.850Z,67.91
2019-03-08T14:42:28.561Z,68.95
2019-03-08T14:44:55.610Z,69.07
2019-03-08T14:47:24.064Z,68.19
2019-03-08T14:49:55.342Z,68.10
2019-03-08T14:52:21.546Z,66.81
2019-03-08T14:54:49.109Z,66.80
2019-03-08T14:57:26.848Z,66.89
2019-03-08T14:59:44.880Z,66.87
2019-03-08T15:02:13.715Z,66.72
2019-03-08T15:04:40.933Z,66.35
2019-03-08T15:07:08.248Z,66.02
2019-03-08T15:09:35.766Z,65.75
2019-03-08T15:12:03.150Z,65.93
2019-03-08T15:14:33.511Z,64.94
2019-03-08T15:16:58.933Z,65.11
2019-03-08T15:19:26.355Z,65.33
2019-03-08T15:21:53.692Z,64.45
2019-03-08T15:24:21.047Z,63.15
2019-03-08T15:26:48.081Z,63.00
2019-03-08T15:29:15.128Z,62.95
2019-03-08T15:31:42.157Z,62.92
2019-03-08T15:34:09.753Z,63.84
2019-03-08T15:36:37.104Z,65.20
2019-03-08T15:39:04.157Z,66.53
2019-03-08T15:41:32.817Z,67.43
2019-03-08T15:43:59.867Z,68.20
2019-03-08T15:46:27.021Z,68.67
2019-03-08T15:48:54.939Z,68.79
2019-03-08T15:51:25.360Z,69.62
2019-03-08T15:53:51.375Z,69.59
2019-03-08T15:56:18.712Z,69.55
2019-03-08T15:58:46.069Z,69.23
2019-03-08T16:01:13.116Z,68.63
2019-03-08T16:03:40.330Z,67.98
2019-03-08T16:06:07.827Z,68.08
2019-03-08T16:08:35.895Z,67.77
2019-03-08T16:11:04.276Z,65.81
2019-03-08T16:13:31.648Z,65.43
2019-03-08T16:15:58.695Z,65.82
2019-03-08T16:18:25.728Z,65.52
2019-03-08T16:20:53.100Z,65.15
2019-03-08T16:23:21.149Z,64.89
2019-03-08T16:25:48.855Z,64.63
2019-03-08T16:28:16.294Z,64.40
2019-03-08T16:30:47.430Z,63.42
2019-03-08T16:33:12.480Z,62.49
2019-03-08T16:35:39.877Z,63.07
2019-03-08T16:38:06.910Z,63.34
2019-03-08T16:40:34.277Z,63.56
2019-03-08T16:43:03.764Z,62.87
2019-03-08T16:45:30.069Z,62.78
2019-03-08T16:47:57.100Z,64.30
2019-03-08T16:50:25.991Z,63.68
2019-03-08T16:53:00.493Z,63.81
2019-03-08T16:55:33.621Z,63.60
2019-03-08T16:58:03.109Z,64.14
2019-03-08T17:00:31.302Z,63.39
2019-03-08T17:02:58.539Z,63.28
2019-03-08T17:05:26.036Z,62.66
2019-03-08T17:08:03.473Z,62.30
2019-03-08T17:10:30.812Z,63.04
2019-03-08T17:12:58.087Z,63.46
2019-03-08T17:15:29.670Z,64.25
2019-03-08T17:17:58.225Z,65.07
2019-03-08T17:20:25.387Z,65.78
2019-03-08T17:22:53.863Z,66.48
2019-03-08T17:25:24.812Z,67.57
2019-03-08T17:27:52.153Z,67.75
2019-03-08T17:30:20.616Z,67.55
2019-03-08T17:32:47.674Z,68.06
2019-03-08T17:35:14.969Z,68.48
2019-03-08T17:37:42.892Z,68.90
2019-03-08T17:40:09.927Z,69.11
2019-03-08T17:42:36.982Z,69.41
2019-03-08T17:45:04.322Z,69.71
2019-03-08T17:47:31.702Z,70.00
2019-03-08T17:49:58.724Z,70.42
2019-03-08T17:52:26.082Z,70.52
2019-03-08T17:54:53.381Z,71.00
2019-03-08T17:57:20.634Z,71.56
2019-03-08T17:59:47.733Z,71.48
2019-03-08T18:02:15.193Z,72.07
2019-03-08T18:04:42.565Z,72.43
2019-03-08T18:07:09.617Z,72.75
2019-03-08T18:09:36.949Z,72.56
2019-03-08T18:12:03.996Z,73.06
2019-03-08T18:14:43.848Z,73.08
2019-03-08T18:17:10.901Z,73.17
2019-03-08T18:19:37.932Z,73.12
2019-03-08T18:22:05.297Z,73.73
2019-03-08T18:24:32.439Z,74.09
2019-03-08T18:26:59.483Z,74.77
2019-03-08T18:29:26.853Z,74.71
2019-03-08T18:31:54.872Z,74.45
2019-03-08T18:34:22.179Z,74.64
2019-03-08T18:36:49.277Z,74.55
2019-03-08T18:39:16.358Z,74.90
2019-03-08T18:41:49.129Z,74.30
2019-03-08T18:44:25.644Z,73.58
2019-03-08T18:46:54.030Z,72.33
2019-03-08T18:49:25.730Z,71.51
2019-03-08T18:51:54.139Z,71.02
2019-03-08T18:54:23.372Z,70.21
2019-03-08T18:56:50.952Z,69.87
2019-03-08T18:59:18.183Z,70.46
2019-03-08T19:04:25.369Z,69.28
2019-03-08T19:09:32.150Z,67.48
2019-03-08T19:12:00.649Z,67.49
2019-03-08T19:14:40.138Z,66.40
2019-03-08T19:19:54.436Z,65.66
2019-03-08T19:27:48.968Z,65.27
2019-03-08T19:30:23.032Z,65.67
2019-03-08T19:32:50.383Z,66.36
2019-03-08T19:35:17.929Z,66.96
2019-03-08T19:40:28.489Z,67.02
2019-03-08T19:42:55.676Z,66.31
2019-03-08T19:45:26.872Z,66.82
2019-03-08T19:47:54.439Z,67.59
2019-03-08T19:58:34.583Z,68.04
2019-03-08T20:01:08.680Z,69.51
2019-03-08T20:03:39.699Z,69.10
2019-03-08T20:06:06.783Z,68.83
2019-03-08T20:08:34.045Z,67.63
2019-03-08T20:11:11.764Z,67.87
2019-03-08T20:13:38.887Z,68.57
2019-03-08T20:16:06.442Z,68.80
2019-03-08T20:18:33.967Z,67.77
2019-03-08T20:21:01.732Z,68.06
2019-03-08T20:23:33.999Z,66.81
2019-03-08T20:26:02.201Z,67.17
2019-03-08T20:28:34.138Z,67.22
2019-03-08T20:31:14.627Z,67.34
2019-03-08T20:33:42.356Z,67.53
2019-03-08T20:36:09.645Z,65.98
2019-03-08T20:38:36.857Z,67.51
2019-03-08T20:49:09.624Z,67.47
2019-03-08T20:51:46.718Z,67.67
2019-03-08T20:56:50.412Z,68.12
2019-03-08T20:59:19.223Z,68.28
2019-03-08T21:01:50.561Z,68.35
2019-03-08T21:04:17.895Z,66.43
2019-03-08T21:06:45.320Z,65.10
2019-03-08T21:09:12.563Z,65.47
2019-03-08T21:11:41.018Z,65.86
2019-03-08T21:14:08.064Z,64.41
2019-03-08T21:16:43.519Z,64.79
2019-03-08T21:19:14.776Z,63.03
2019-03-08T21:21:43.179Z,63.84
2019-03-08T21:24:10.471Z,64.82
2019-03-08T21:26:45.758Z,67.55
2019-03-08T21:29:17.375Z,65.65
2019-03-08T21:37:11.265Z,65.09
2019-03-08T21:39:38.729Z,64.35
2019-03-08T21:42:06.141Z,63.78
2019-03-08T21:44:33.879Z,64.22
2019-03-08T21:47:00.954Z,64.81
2019-03-08T21:49:28.477Z,63.43
2019-03-08T21:51:55.870Z,63.41
2019-03-08T21:54:22.979Z,64.36
2019-03-08T21:56:50.981Z,64.66
2019-03-08T21:59:18.625Z,66.33
2019-03-08T22:01:46.081Z,66.20
2019-03-08T22:04:13.115Z,65.25
2019-03-08T22:06:40.473Z,64.40
2019-03-08T22:09:07.504Z,64.31
2019-03-08T22:11:36.528Z,63.27
2019-03-08T22:14:03.969Z,64.08
2019-03-08T22:16:31.348Z,64.30
2019-03-08T22:18:58.356Z,63.76
2019-03-08T22:21:25.411Z,63.91
2019-03-08T22:23:52.761Z,64.48
2019-03-08T22:26:20.117Z,63.42
2019-03-08T22:28:47.791Z,64.05
2019-03-08T22:31:15.148Z,64.67
2019-03-08T22:33:42.451Z,63.99
2019-03-08T22:36:09.581Z,65.92
2019-03-08T22:38:36.992Z,67.11
2019-03-08T22:41:04.347Z,66.90
2019-03-08T22:43:32.628Z,67.18
2019-03-08T22:45:59.672Z,67.63
2019-03-08T22:48:26.704Z,67.91
2019-03-08T22:50:53.758Z,67.08
2019-03-08T22:53:21.120Z,68.75
2019-03-08T22:55:49.399Z,67.66
2019-03-08T22:58:16.713Z,67.55
2019-03-08T23:00:44.112Z,68.02
2019-03-08T23:03:13.107Z,67.43
2019-03-08T23:05:40.493Z,68.09
2019-03-08T23:08:07.811Z,68.48
2019-03-08T23:10:35.103Z,68.51
2019-03-08T23:13:02.413Z,69.18
2019-03-08T23:15:29.456Z,69.90
2019-03-08T23:17:56.492Z,69.98
2019-03-08T23:20:23.871Z,69.53
2019-03-08T23:22:51.248Z,69.54
2019-03-08T23:25:19.535Z,70.26
2019-03-08T23:27:47.010Z,70.83
2019-03-08T23:30:14.317Z,69.67
2019-03-08T23:32:41.673Z,69.15
2019-03-08T23:35:09.042Z,68.84
2019-03-08T23:37:36.380Z,68.16
2019-03-08T23:40:03.660Z,68.48
2019-03-08T23:42:31.008Z,67.85
2019-03-08T23:44:58.043Z,68.59
2019-03-08T23:47:26.434Z,67.62
2019-03-08T23:49:53.792Z,67.19
2019-03-08T23:52:20.839Z,68.04
2019-03-08T23:54:48.114Z,68.70
2019-03-08T23:57:15.532Z,68.52
2019-03-08T23:59:42.565Z,68.15
